Time;durP1;ratioP1;P1;durP2;ratioP2;P2;SDS_P1;SDS_P2;PMS_P1;PMS_P2;Temp;Humidity;BMP_temperature;BMP_pressure;BME280_temperature;BME280_humidity;BME280_pressure;Samples;Min_cycle;Max_cycle;Signal;HPM_P1;HPM_P2
2024/01/19 00:02:16;;;;;;;3.10;2.90;;;18.30;34.60;;;;;;5013901;28;20223;-68
2024/01/19 00:04:42;;;;;;;3.27;3.07;;;18.30;34.60;;;;;;5012217;28;20478;-69
2024/01/19 00:07:07;;;;;;;3.40;3.20;;;18.30;34.60;;;;;;5010898;28;20226;-68
2024/01/19 00:09:33;;;;;;;3.40;3.10;;;18.30;34.60;;;;;;5009413;28;20231;-69
2024/01/19 00:11:58;;;;;;;3.23;3.00;;;18.30;34.60;;;;;;5019955;28;20225;-68
2024/01/19 00:14:28;;;;;;;3.20;2.90;;;18.30;34.60;;;;;;5007288;28;20222;-68
2024/01/19 00:16:53;;;;;;;3.33;3.13;;;18.30;34.60;;;;;;5004541;28;20687;-68
2024/01/19 00:19:19;;;;;;;3.23;3.03;;;18.30;34.60;;;;;;5007879;28;20437;-69
2024/01/19 00:21:45;;;;;;;3.20;3.00;;;18.30;34.60;;;;;;5010347;28;20229;-68
2024/01/19 00:24:14;;;;;;;3.37;3.17;;;18.30;34.60;;;;;;5027179;28;20237;-68
2024/01/19 00:26:40;;;;;;;3.40;3.10;;;18.30;34.60;;;;;;5011726;28;20450;-69
2024/01/19 00:29:07;;;;;;;2.83;2.70;;;18.30;34.60;;;;;;5019360;28;20514;-68
2024/01/19 00:31:33;;;;;;;3.27;3.07;;;18.30;34.60;;;;;;5014553;28;20233;-69
2024/01/19 00:33:59;;;;;;;2.70;2.50;;;18.30;34.60;;;;;;5026049;28;20449;-68
2024/01/19 00:36:25;;;;;;;3.13;2.93;;;18.30;34.50;;;;;;5013673;28;20438;-69
2024/01/19 00:38:52;;;;;;;2.53;2.43;;;18.30;34.60;;;;;;5011282;28;20227;-68
2024/01/19 00:41:17;;;;;;;3.23;3.03;;;18.30;34.60;;;;;;5008145;28;20686;-69
2024/01/19 00:43:43;;;;;;;2.93;2.73;;;18.30;34.60;;;;;;5004233;28;20459;-68
2024/01/19 00:46:09;;;;;;;2.73;2.63;;;18.30;34.60;;;;;;5023973;28;20260;-69
2024/01/19 00:48:34;;;;;;;2.90;2.70;;;18.30;34.60;;;;;;5018035;28;20250;-68
2024/01/19 00:51:00;;;;;;;3.00;2.80;;;18.30;34.60;;;;;;5004060;28;20385;-68
2024/01/19 00:53:25;;;;;;;3.20;3.00;;;18.30;34.60;;;;;;5007646;28;20219;-68
2024/01/19 00:55:51;;;;;;;2.90;2.70;;;18.30;34.50;;;;;;5020273;28;20228;-68
2024/01/19 00:58:16;;;;;;;2.37;2.23;;;18.30;34.60;;;;;;5021902;28;20222;-68
2024/01/19 01:00:42;;;;;;;2.90;2.80;;;18.30;34.50;;;;;;5016367;28;20246;-68
2024/01/19 01:03:08;;;;;;;3.00;2.80;;;18.30;34.50;;;;;;5015996;28;20333;-68
2024/01/19 01:05:34;;;;;;;2.60;2.40;;;18.30;34.50;;;;;;5024981;28;22228;-68
2024/01/19 01:07:59;;;;;;;3.40;3.20;;;18.30;34.50;;;;;;5022403;28;20441;-68
2024/01/19 01:10:25;;;;;;;3.30;3.00;;;18.30;34.50;;;;;;5008999;28;20305;-68
2024/01/19 01:12:50;;;;;;;2.80;2.70;;;18.30;34.60;;;;;;5024167;28;20241;-68
2024/01/19 01:15:16;;;;;;;2.90;2.80;;;18.30;34.50;;;;;;5024589;28;20205;-69
2024/01/19 01:17:41;;;;;;;3.30;3.10;;;18.30;34.50;;;;;;5022293;28;20262;-69
2024/01/19 01:20:10;;;;;;;2.67;2.47;;;18.30;34.60;;;;;;5026402;28;20778;-69
2024/01/19 01:22:36;;;;;;;3.10;2.90;;;18.30;34.50;;;;;;5044760;28;20299;-69
2024/01/19 01:25:02;;;;;;;2.90;2.80;;;18.30;34.60;;;;;;5033768;28;20494;-69
2024/01/19 01:27:27;;;;;;;3.17;2.97;;;18.30;34.50;;;;;;5023456;28;20238;-68
2024/01/19 01:29:53;;;;;;;3.10;2.90;;;18.30;34.50;;;;;;5025749;28;20254;-68
2024/01/19 01:32:18;;;;;;;3.20;3.00;;;18.30;34.50;;;;;;5031317;28;20214;-69
2024/01/19 01:34:44;;;;;;;2.63;2.53;;;18.30;34.50;;;;;;5026481;28;20234;-69
2024/01/19 01:37:09;;;;;;;2.97;2.77;;;18.30;34.50;;;;;;5023378;28;20215;-69
2024/01/19 01:39:35;;;;;;;2.90;2.70;;;18.30;34.50;;;;;;5032068;28;20224;-68
2024/01/19 01:42:00;;;;;;;2.93;2.73;;;18.30;34.60;;;;;;5018096;28;20234;-68
2024/01/19 01:44:26;;;;;;;2.67;2.47;;;18.30;34.50;;;;;;5024536;28;20275;-69
2024/01/19 01:46:52;;;;;;;2.90;2.70;;;18.30;34.50;;;;;;5018120;28;20226;-68
2024/01/19 01:49:18;;;;;;;2.47;2.37;;;18.30;34.50;;;;;;5014309;28;20230;-68
2024/01/19 01:51:45;;;;;;;2.77;2.57;;;18.30;34.50;;;;;;5016724;28;20982;-68
2024/01/19 01:54:12;;;;;;;3.40;3.20;;;18.30;34.50;;;;;;5016487;28;20698;-68
2024/01/19 01:56:37;;;;;;;2.80;2.60;;;18.30;34.50;;;;;;5027511;28;20785;-69
2024/01/19 01:59:03;;;;;;;2.80;2.60;;;18.30;34.50;;;;;;5020728;28;20434;-68
2024/01/19 02:01:29;;;;;;;2.60;2.40;;;18.30;34.50;;;;;;5033913;28;20218;-68
2024/01/19 02:03:56;;;;;;;2.70;2.60;;;18.30;34.50;;;;;;5015067;28;20252;-68
2024/01/19 02:06:21;;;;;;;2.67;2.57;;;18.30;34.50;;;;;;5020762;28;20233;-68
2024/01/19 02:08:47;;;;;;;2.50;2.33;;;18.30;34.50;;;;;;5030294;28;20430;-68
2024/01/19 02:11:13;;;;;;;2.73;2.60;;;18.30;34.50;;;;;;5032468;28;20308;-68
2024/01/19 02:13:39;;;;;;;2.73;2.53;;;18.30;34.50;;;;;;5033158;28;20915;-68
2024/01/19 02:16:04;;;;;;;2.53;2.40;;;18.30;34.50;;;;;;5030614;28;20450;-68
2024/01/19 02:18:30;;;;;;;2.70;2.50;;;18.30;34.50;;;;;;5015485;28;21064;-68
2024/01/19 02:20:55;;;;;;;2.30;2.20;;;18.30;34.60;;;;;;5022280;28;20220;-68
2024/01/19 02:23:26;;;;;;;2.40;2.30;;;18.30;34.50;;;;;;5032583;28;20936;-68
2024/01/19 02:25:52;;;;;;;2.67;2.57;;;18.30;34.50;;;;;;5018085;28;20620;-67
2024/01/19 02:28:18;;;;;;;2.73;2.53;;;18.30;34.50;;;;;;5017997;28;20459;-69
2024/01/19 02:30:44;;;;;;;2.40;2.30;;;18.30;34.50;;;;;;5029010;28;20709;-69
2024/01/19 02:33:10;;;;;;;2.80;2.60;;;18.30;34.50;;;;;;5016959;28;20434;-69
2024/01/19 02:35:36;;;;;;;3.20;2.90;;;18.30;34.50;;;;;;5021398;28;20866;-69
2024/01/19 02:38:01;;;;;;;2.53;2.37;;;18.30;34.50;;;;;;5023715;28;22947;-69
2024/01/19 02:40:27;;;;;;;3.10;2.90;;;18.30;34.50;;;;;;5017635;28;20227;-67
2024/01/19 02:42:53;;;;;;;2.67;2.57;;;18.30;34.50;;;;;;5029334;28;20689;-68
2024/01/19 02:45:18;;;;;;;2.90;2.70;;;18.30;34.50;;;;;;5023977;28;20242;-67
2024/01/19 02:47:44;;;;;;;2.93;2.50;;;18.30;34.50;;;;;;5027838;28;20254;-68
2024/01/19 02:50:09;;;;;;;2.60;2.40;;;18.30;34.50;;;;;;5025102;28;20249;-67
2024/01/19 02:52:35;;;;;;;2.37;2.27;;;18.30;34.50;;;;;;5024462;28;21824;-68
2024/01/19 02:55:02;;;;;;;2.60;2.43;;;18.30;34.40;;;;;;5025156;28;20227;-68
2024/01/19 02:57:27;;;;;;;3.27;3.07;;;18.30;34.50;;;;;;5037064;28;20669;-68
2024/01/19 02:59:53;;;;;;;2.70;2.50;;;18.30;34.50;;;;;;5033483;28;20468;-68
2024/01/19 03:02:19;;;;;;;2.73;2.53;;;18.30;34.50;;;;;;5035349;28;20218;-68
2024/01/19 03:04:44;;;;;;;2.53;2.33;;;18.30;34.40;;;;;;5033201;28;22932;-68
2024/01/19 03:07:11;;;;;;;2.80;2.60;;;18.30;34.40;;;;;;5020156;28;20221;-68
2024/01/19 03:09:36;;;;;;;2.00;1.90;;;18.30;34.40;;;;;;5024123;28;20253;-68
2024/01/19 03:12:02;;;;;;;2.67;2.50;;;18.30;34.50;;;;;;5062045;28;20452;-68
2024/01/19 03:14:28;;;;;;;2.73;2.53;;;18.30;34.50;;;;;;5015302;28;20222;-68
2024/01/19 03:16:53;;;;;;;2.40;2.30;;;18.30;34.50;;;;;;5021811;28;20487;-67
2024/01/19 03:19:19;;;;;;;2.33;2.23;;;18.30;34.50;;;;;;5030549;28;20261;-68
2024/01/19 03:21:45;;;;;;;2.60;2.40;;;18.30;34.50;;;;;;5017285;28;20742;-68
2024/01/19 03:24:10;;;;;;;2.60;2.40;;;18.30;34.50;;;;;;5020425;28;20223;-68
2024/01/19 03:26:36;;;;;;;2.90;2.77;;;18.30;34.50;;;;;;5016157;28;20234;-68
2024/01/19 03:29:01;;;;;;;2.27;2.17;;;18.30;34.50;;;;;;5026131;28;23270;-68
2024/01/19 03:31:27;;;;;;;2.73;2.53;;;18.30;34.50;;;;;;5019988;28;20704;-67
2024/01/19 03:33:52;;;;;;;2.50;2.40;;;18.30;34.50;;;;;;5019093;28;20264;-67
2024/01/19 03:36:18;;;;;;;3.23;3.03;;;18.30;34.50;;;;;;5022994;28;20252;-68
2024/01/19 03:38:43;;;;;;;2.00;1.90;;;18.30;34.50;;;;;;5028379;28;20261;-68
2024/01/19 03:41:09;;;;;;;2.30;2.20;;;18.30;34.50;;;;;;5020384;28;20310;-67
2024/01/19 03:43:34;;;;;;;2.87;2.67;;;18.30;34.50;;;;;;5018861;28;20227;-67
2024/01/19 03:46:00;;;;;;;2.00;1.90;;;18.30;34.50;;;;;;5025254;28;20251;-68
2024/01/19 03:48:26;;;;;;;2.53;2.40;;;18.30;34.50;;;;;;5020843;28;20721;-67
2024/01/19 03:50:51;;;;;;;2.50;2.40;;;18.30;34.40;;;;;;5017700;28;20246;-69
2024/01/19 03:53:17;;;;;;;2.40;2.30;;;18.30;34.50;;;;;;5015781;28;20223;-69
2024/01/19 03:55:42;;;;;;;2.30;2.20;;;18.30;34.50;;;;;;5021279;28;20630;-69
2024/01/19 03:58:08;;;;;;;2.37;2.27;;;18.30;34.50;;;;;;5020407;28;20313;-69
2024/01/19 04:00:33;;;;;;;2.20;2.10;;;18.30;34.50;;;;;;5015386;28;20236;-68
2024/01/19 04:02:59;;;;;;;2.40;2.30;;;18.20;34.40;;;;;;5026923;28;20211;-67
2024/01/19 04:05:25;;;;;;;2.20;2.07;;;18.20;34.40;;;;;;5021767;28;20720;-68
2024/01/19 04:07:50;;;;;;;2.60;2.40;;;18.20;34.40;;;;;;5037376;28;20272;-67
2024/01/19 04:10:16;;;;;;;2.13;2.03;;;18.20;34.30;;;;;;5032408;28;20226;-68
2024/01/19 04:12:42;;;;;;;2.27;2.17;;;18.20;34.30;;;;;;5034235;28;20219;-68
2024/01/19 04:15:07;;;;;;;2.57;2.37;;;18.20;34.30;;;;;;5033115;28;20336;-68
2024/01/19 04:17:33;;;;;;;2.20;2.10;;;18.20;34.40;;;;;;5028034;28;20230;-67
2024/01/19 04:19:59;;;;;;;2.80;2.13;;;18.20;34.40;;;;;;5027011;28;20261;-67
2024/01/19 04:22:27;;;;;;;2.17;1.97;;;18.20;34.40;;;;;;5030161;28;20291;-68
2024/01/19 04:24:53;;;;;;;2.50;2.40;;;18.20;34.30;;;;;;5022371;28;20305;-67
2024/01/19 04:27:19;;;;;;;2.17;2.07;;;18.20;34.40;;;;;;5020040;28;20434;-68
2024/01/19 04:29:44;;;;;;;2.20;2.10;;;18.20;34.30;;;;;;5018895;28;20430;-67
2024/01/19 04:32:10;;;;;;;2.23;2.13;;;18.20;34.40;;;;;;5024940;28;20215;-68
2024/01/19 04:34:35;;;;;;;2.37;2.20;;;18.20;34.40;;;;;;5031065;28;20218;-67
2024/01/19 04:37:01;;;;;;;2.47;2.27;;;18.20;34.40;;;;;;5028257;28;20709;-67
2024/01/19 04:39:26;;;;;;;2.90;2.70;;;18.20;34.30;;;;;;5034411;28;20237;-67
2024/01/19 04:41:52;;;;;;;2.33;2.23;;;18.20;34.30;;;;;;5029030;28;20219;-68
2024/01/19 04:44:18;;;;;;;2.80;2.60;;;18.20;34.30;;;;;;5018942;28;20305;-67
2024/01/19 04:46:43;;;;;;;2.17;1.97;;;18.20;34.30;;;;;;5030656;28;20297;-67
2024/01/19 04:49:09;;;;;;;2.40;2.20;;;18.20;34.30;;;;;;5036419;28;20305;-67
2024/01/19 04:51:34;;;;;;;3.40;3.10;;;18.30;34.30;;;;;;5027261;28;20786;-68
2024/01/19 04:54:00;;;;;;;2.20;2.10;;;18.20;34.30;;;;;;5015323;28;20306;-67
2024/01/19 04:56:25;;;;;;;2.20;2.10;;;18.20;34.30;;;;;;5014899;28;20746;-67
2024/01/19 04:58:51;;;;;;;2.00;1.90;;;18.30;34.30;;;;;;5024530;28;20214;-68
2024/01/19 05:01:17;;;;;;;2.33;2.13;;;18.30;34.30;;;;;;5015144;28;20266;-67
2024/01/19 05:03:43;;;;;;;2.17;2.07;;;18.30;34.30;;;;;;5026591;28;20229;-67
2024/01/19 05:06:11;;;;;;;2.20;2.10;;;18.30;34.30;;;;;;5035888;28;20990;-67
2024/01/19 05:08:37;;;;;;;2.03;1.93;;;18.30;34.20;;;;;;5027718;28;20269;-67
2024/01/19 05:11:03;;;;;;;2.07;1.77;;;18.30;34.20;;;;;;5035780;28;20803;-67
2024/01/19 05:13:28;;;;;;;2.43;2.30;;;18.30;34.20;;;;;;5039355;28;20230;-67
2024/01/19 05:15:54;;;;;;;2.13;2.03;;;18.30;34.20;;;;;;5029737;28;20438;-67
2024/01/19 05:18:21;;;;;;;2.40;2.30;;;18.30;34.20;;;;;;5020158;28;20226;-68
2024/01/19 05:20:46;;;;;;;2.60;2.40;;;18.30;34.10;;;;;;5021129;28;20310;-67
2024/01/19 05:23:12;;;;;;;3.10;2.10;;;18.30;34.10;;;;;;5014879;28;20428;-67
2024/01/19 05:25:37;;;;;;;2.20;2.00;;;18.40;34.10;;;;;;5009714;28;20230;-67
2024/01/19 05:28:03;;;;;;;4.03;2.23;;;18.40;34.10;;;;;;5027197;28;20229;-69
2024/01/19 05:30:29;;;;;;;2.20;2.00;;;18.40;34.10;;;;;;5031957;28;20276;-70
2024/01/19 05:32:54;;;;;;;2.27;2.10;;;18.40;34.10;;;;;;5017648;28;20229;-70
2024/01/19 05:35:20;;;;;;;2.30;2.10;;;18.40;34.10;;;;;;5017151;28;20215;-69
2024/01/19 05:37:46;;;;;;;2.10;2.00;;;18.40;34.10;;;;;;5018328;28;20281;-70
2024/01/19 05:40:11;;;;;;;2.00;1.90;;;18.40;34.10;;;;;;5017437;28;20226;-69
2024/01/19 05:42:37;;;;;;;2.10;2.00;;;18.40;34.10;;;;;;5028302;28;20222;-69
2024/01/19 05:45:03;;;;;;;1.90;1.80;;;18.40;34.10;;;;;;5030510;28;20234;-69
2024/01/19 05:47:29;;;;;;;2.40;2.30;;;18.40;34.10;;;;;;5021039;28;20227;-69
2024/01/19 05:49:55;;;;;;;2.10;2.00;;;18.40;34.10;;;;;;5031016;28;20441;-70
2024/01/19 05:52:20;;;;;;;2.07;1.97;;;18.40;34.10;;;;;;5027506;28;20214;-70
2024/01/19 05:54:46;;;;;;;2.17;2.07;;;18.40;34.10;;;;;;5019625;28;20227;-72
2024/01/19 05:57:11;;;;;;;2.20;2.00;;;18.40;34.10;;;;;;5014601;28;21556;-70
2024/01/19 05:59:40;;;;;;;2.10;2.00;;;18.40;34.10;;;;;;5011663;28;20238;-69
2024/01/19 06:02:06;;;;;;;2.70;2.50;;;18.40;34.10;;;;;;5016578;28;20601;-68
2024/01/19 06:04:33;;;;;;;2.50;2.30;;;18.40;33.90;;;;;;5030115;28;20475;-68
2024/01/19 06:06:59;;;;;;;3.13;2.50;;;18.50;33.80;;;;;;5033820;28;20263;-69
2024/01/19 06:09:25;;;;;;;2.60;2.40;;;18.60;33.70;;;;;;5032962;28;20956;-69
2024/01/19 06:11:50;;;;;;;2.47;2.27;;;18.60;34.40;;;;;;5016581;28;20484;-67
2024/01/19 06:14:16;;;;;;;3.03;2.20;;;18.70;33.70;;;;;;5025333;28;20229;-73
2024/01/19 06:16:42;;;;;;;2.30;2.10;;;18.70;33.70;;;;;;5004902;28;20234;-72
2024/01/19 06:19:07;;;;;;;2.30;2.20;;;18.60;33.60;;;;;;5017433;28;20231;-70
2024/01/19 06:21:33;;;;;;;2.47;2.30;;;18.60;33.70;;;;;;5014511;28;20777;-69
2024/01/19 06:23:59;;;;;;;1.97;1.87;;;18.60;33.80;;;;;;5027538;28;20230;-70
2024/01/19 06:26:24;;;;;;;2.50;2.30;;;18.50;33.90;;;;;;5027028;28;20467;-70
2024/01/19 06:28:50;;;;;;;2.27;2.17;;;18.50;33.90;;;;;;5014820;28;20222;-69
2024/01/19 06:31:15;;;;;;;2.30;2.10;;;18.50;34.00;;;;;;5023349;28;20218;-70
2024/01/19 06:33:41;;;;;;;2.77;2.57;;;18.50;34.00;;;;;;5035124;28;20257;-70
2024/01/19 06:36:10;;;;;;;3.90;2.00;;;18.50;34.00;;;;;;5043073;28;20222;-70
2024/01/19 06:38:36;;;;;;;2.43;2.23;;;18.50;34.00;;;;;;5030566;28;20225;-70
2024/01/19 06:41:03;;;;;;;2.30;2.00;;;18.50;34.10;;;;;;5023142;28;20419;-70
2024/01/19 06:43:29;;;;;;;2.70;2.50;;;18.40;34.00;;;;;;5026197;28;20600;-70
2024/01/19 06:45:55;;;;;;;1.90;1.70;;;18.40;34.00;;;;;;5027584;28;20414;-70
2024/01/19 06:48:21;;;;;;;2.20;1.93;;;18.40;34.00;;;;;;5026479;28;20217;-70
2024/01/19 06:50:46;;;;;;;2.70;2.03;;;18.40;34.00;;;;;;5028472;28;20242;-70
2024/01/19 06:53:12;;;;;;;2.13;1.80;;;18.40;34.00;;;;;;5027074;28;20257;-70
2024/01/19 06:55:37;;;;;;;2.20;2.10;;;18.40;34.00;;;;;;5038359;28;20227;-70
2024/01/19 06:58:03;;;;;;;2.13;2.03;;;18.40;34.00;;;;;;5027104;28;20252;-69
2024/01/19 07:00:28;;;;;;;2.30;2.10;;;18.40;34.00;;;;;;5022259;28;20270;-70
2024/01/19 07:02:54;;;;;;;4.90;2.13;;;18.40;34.10;;;;;;5023992;28;20215;-70
2024/01/19 07:05:20;;;;;;;2.00;1.90;;;18.40;34.10;;;;;;5031169;28;20319;-70
2024/01/19 07:07:45;;;;;;;2.30;1.80;;;18.40;34.10;;;;;;5041471;28;20238;-70
2024/01/19 07:10:11;;;;;;;2.97;2.30;;;18.40;34.00;;;;;;5027670;28;20621;-70
2024/01/19 07:12:36;;;;;;;1.93;1.83;;;18.40;34.10;;;;;;5026151;28;20685;-70
2024/01/19 07:15:02;;;;;;;2.47;2.10;;;18.40;34.10;;;;;;5027074;28;21375;-70
2024/01/19 07:17:28;;;;;;;1.90;1.80;;;18.40;34.10;;;;;;5040962;28;20271;-70
2024/01/19 07:19:53;;;;;;;1.90;1.80;;;18.40;34.10;;;;;;5043426;28;20220;-71
2024/01/19 07:22:19;;;;;;;2.53;1.90;;;18.40;34.10;;;;;;5040402;28;20217;-70
2024/01/19 07:24:44;;;;;;;2.10;1.97;;;18.40;34.10;;;;;;5037367;28;20730;-70
2024/01/19 07:27:10;;;;;;;2.13;2.03;;;18.40;34.10;;;;;;5019421;28;20740;-70
2024/01/19 07:29:35;;;;;;;2.20;1.90;;;18.40;34.10;;;;;;5026854;28;20724;-71
2024/01/19 07:32:01;;;;;;;2.43;2.23;;;18.40;34.10;;;;;;5016503;28;20277;-72
2024/01/19 07:34:27;;;;;;;2.30;2.10;;;18.40;34.90;;;;;;5026808;28;20230;-70
2024/01/19 07:36:52;;;;;;;2.37;2.17;;;18.40;34.10;;;;;;5026779;28;20869;-71
2024/01/19 07:39:23;;;;;;;2.80;1.87;;;18.40;34.10;;;;;;5021232;28;20222;-71
2024/01/19 07:41:51;;;;;;;2.60;2.40;;;18.40;34.10;;;;;;5036009;28;20217;-71
2024/01/19 07:44:17;;;;;;;2.33;1.87;;;18.40;34.10;;;;;;5028255;28;20962;-71
2024/01/19 07:46:42;;;;;;;2.30;2.10;;;18.30;34.00;;;;;;5032848;28;20473;-71
2024/01/19 07:49:08;;;;;;;2.20;2.10;;;18.30;34.00;;;;;;5030931;28;20258;-71
2024/01/19 07:51:34;;;;;;;1.80;1.70;;;18.30;34.00;;;;;;5018495;28;20229;-71
2024/01/19 07:53:59;;;;;;;2.20;2.10;;;18.30;34.00;;;;;;5013873;28;20766;-71
2024/01/19 07:56:25;;;;;;;2.03;1.93;;;18.40;34.20;;;;;;5033350;28;20214;-71
2024/01/19 07:58:51;;;;;;;2.60;2.40;;;18.30;34.10;;;;;;5041144;28;20658;-71
2024/01/19 08:01:16;;;;;;;2.23;2.03;;;18.30;34.10;;;;;;5034878;28;20505;-71
2024/01/19 08:03:43;;;;;;;1.93;1.83;;;18.30;34.10;;;;;;5021823;28;20709;-71
2024/01/19 08:06:09;;;;;;;1.80;1.70;;;18.30;34.10;;;;;;5024159;28;20473;-71
2024/01/19 08:08:35;;;;;;;1.93;1.80;;;18.30;34.10;;;;;;5027594;28;20293;-70
2024/01/19 08:11:00;;;;;;;2.20;2.00;;;18.30;34.10;;;;;;5023357;28;20517;-71
2024/01/19 08:13:26;;;;;;;2.70;2.27;;;18.30;34.10;;;;;;5030486;28;20221;-69
2024/01/19 08:15:52;;;;;;;2.20;2.00;;;18.30;34.20;;;;;;5016401;28;20265;-68
2024/01/19 08:18:17;;;;;;;1.90;1.80;;;18.30;34.20;;;;;;5024089;28;20222;-68
2024/01/19 08:20:43;;;;;;;1.87;1.77;;;18.30;35.00;;;;;;5031196;28;20468;-68
2024/01/19 08:23:08;;;;;;;2.10;2.00;;;18.30;34.20;;;;;;5024052;28;20214;-69
2024/01/19 08:25:34;;;;;;;2.23;2.13;;;18.30;34.20;;;;;;5021225;28;20223;-69
2024/01/19 08:28:00;;;;;;;2.13;2.03;;;18.30;34.20;;;;;;5018360;28;20703;-69
2024/01/19 08:30:26;;;;;;;2.17;2.00;;;18.30;34.20;;;;;;5039495;28;20221;-66
2024/01/19 08:32:52;;;;;;;2.20;2.10;;;18.30;34.20;;;;;;5022674;28;20446;-66
2024/01/19 08:35:17;;;;;;;2.20;2.10;;;18.30;34.20;;;;;;5029329;28;20437;-67
2024/01/19 08:37:43;;;;;;;2.20;2.00;;;18.30;34.10;;;;;;5040516;28;20313;-68
2024/01/19 08:40:11;;;;;;;2.40;1.90;;;18.30;34.20;;;;;;5029359;28;20314;-69
2024/01/19 08:42:37;;;;;;;2.20;2.00;;;18.30;34.20;;;;;;5021282;28;20234;-69
2024/01/19 08:45:04;;;;;;;2.43;2.33;;;18.30;34.10;;;;;;5018699;28;20451;-69
2024/01/19 08:47:29;;;;;;;2.63;2.53;;;18.30;34.20;;;;;;5035281;28;20441;-68
2024/01/19 08:49:55;;;;;;;2.03;1.93;;;18.30;34.20;;;;;;5037677;28;20809;-69
2024/01/19 08:52:20;;;;;;;2.40;2.20;;;18.30;35.00;;;;;;5023091;28;20555;-69
2024/01/19 08:54:46;;;;;;;2.03;1.93;;;18.30;34.20;;;;;;5027371;28;20223;-69
2024/01/19 08:57:12;;;;;;;2.37;2.20;;;18.30;34.20;;;;;;5021446;28;20226;-68
2024/01/19 08:59:38;;;;;;;2.23;2.07;;;18.30;34.20;;;;;;5031315;28;20273;-68
2024/01/19 09:02:03;;;;;;;2.33;2.23;;;18.30;34.30;;;;;;5017024;28;20234;-69
2024/01/19 09:04:29;;;;;;;2.17;2.07;;;18.30;34.30;;;;;;5020442;28;20231;-69
2024/01/19 09:06:55;;;;;;;2.50;2.30;;;18.30;34.30;;;;;;5014641;28;20690;-69
2024/01/19 09:09:24;;;;;;;2.03;1.83;;;18.30;34.30;;;;;;5026440;28;20277;-69
2024/01/19 09:11:49;;;;;;;2.43;2.33;;;18.30;34.30;;;;;;5011610;28;20219;-69
2024/01/19 09:14:15;;;;;;;2.10;2.00;;;18.30;34.30;;;;;;5026455;28;20512;-69
2024/01/19 09:16:44;;;;;;;2.20;2.10;;;18.30;34.40;;;;;;5018836;28;20281;-69
2024/01/19 09:19:11;;;;;;;2.83;2.63;;;18.30;34.30;;;;;;5024759;28;20218;-69
2024/01/19 09:21:39;;;;;;;2.57;2.37;;;18.30;34.40;;;;;;5015441;28;20427;-69
2024/01/19 09:24:05;;;;;;;2.57;2.07;;;18.30;34.40;;;;;;5026379;28;20449;-69
2024/01/19 09:26:30;;;;;;;2.17;2.07;;;18.30;34.30;;;;;;5031008;28;20445;-68
2024/01/19 09:28:56;;;;;;;2.03;1.90;;;18.30;34.40;;;;;;5024565;28;20306;-69
2024/01/19 09:31:21;;;;;;;2.50;2.30;;;18.30;34.40;;;;;;5018385;28;20258;-69
2024/01/19 09:33:47;;;;;;;2.00;1.90;;;18.30;34.40;;;;;;5020013;28;20222;-69
2024/01/19 09:36:13;;;;;;;2.20;2.10;;;18.30;34.40;;;;;;5022133;28;20297;-69
2024/01/19 09:38:39;;;;;;;2.17;2.07;;;18.30;34.40;;;;;;5031669;28;20234;-69
2024/01/19 09:41:13;;;;;;;2.10;2.00;;;18.30;34.50;;;;;;5001127;28;20280;-69
2024/01/19 09:43:42;;;;;;;2.10;2.00;;;18.30;34.40;;;;;;5020958;28;20712;-69
2024/01/19 09:46:17;;;;;;;2.43;2.23;;;18.30;34.40;;;;;;5025664;28;20975;-69
2024/01/19 09:48:59;;;;;;;2.03;1.93;;;18.30;34.40;;;;;;5019638;28;20442;-68
2024/01/19 09:51:37;;;;;;;2.10;1.90;;;18.20;34.40;;;;;;5014688;28;20430;-69
2024/01/19 09:54:07;;;;;;;2.20;2.07;;;18.20;34.40;;;;;;5026963;28;20740;-69
2024/01/19 09:56:32;;;;;;;3.10;2.47;;;18.20;34.40;;;;;;5028937;28;20405;-69
2024/01/19 09:59:00;;;;;;;2.10;1.93;;;18.20;34.40;;;;;;5025443;28;22815;-68
2024/01/19 10:01:25;;;;;;;2.10;2.00;;;18.20;34.30;;;;;;5026998;28;20232;-69
2024/01/19 10:03:58;;;;;;;2.57;2.37;;;18.20;34.40;;;;;;5033009;28;20445;-69
2024/01/19 10:06:25;;;;;;;2.73;2.53;;;18.20;35.20;;;;;;5033427;28;20227;-69
2024/01/19 10:08:54;;;;;;;2.30;2.17;;;18.30;34.50;;;;;;5010880;28;20586;-69
2024/01/19 10:11:20;;;;;;;2.33;2.03;;;18.20;34.40;;;;;;5020031;28;20434;-70
2024/01/19 10:13:46;;;;;;;2.73;2.53;;;18.20;34.40;;;;;;5030925;28;20426;-70
2024/01/19 10:16:11;;;;;;;2.60;2.10;;;18.20;34.40;;;;;;5041974;28;20518;-69
2024/01/19 10:18:38;;;;;;;2.70;2.50;;;18.20;34.40;;;;;;5025984;28;20265;-69
2024/01/19 10:21:05;;;;;;;2.90;2.07;;;18.20;34.40;;;;;;5034738;28;20230;-69
2024/01/19 10:23:30;;;;;;;2.37;2.17;;;18.20;34.40;;;;;;5024977;28;20491;-70
2024/01/19 10:26:13;;;;;;;2.17;2.07;;;18.20;34.50;;;;;;5036446;28;20550;-70
2024/01/19 10:28:39;;;;;;;2.27;2.17;;;18.20;34.40;;;;;;5022787;28;20566;-70
2024/01/19 10:31:22;;;;;;;2.13;2.03;;;18.20;34.40;;;;;;5023678;28;20784;-67
2024/01/19 10:33:50;;;;;;;2.30;2.20;;;18.20;34.40;;;;;;5022944;28;20479;-68
2024/01/19 10:36:16;;;;;;;2.47;2.37;;;18.20;34.50;;;;;;5031443;28;20809;-67
2024/01/19 10:38:41;;;;;;;2.27;2.07;;;18.20;34.40;;;;;;5041091;28;20496;-67
2024/01/19 10:41:17;;;;;;;2.40;2.20;;;18.20;34.50;;;;;;5026779;28;20258;-67
2024/01/19 10:43:43;;;;;;;2.80;2.60;;;18.20;34.50;;;;;;5032241;28;20761;-67
2024/01/19 10:46:23;;;;;;;2.40;2.20;;;18.20;34.50;;;;;;5023835;28;20439;-67
2024/01/19 10:48:52;;;;;;;2.17;2.00;;;18.20;34.50;;;;;;5035145;28;21069;-67
2024/01/19 10:51:21;;;;;;;2.20;2.10;;;18.20;34.50;;;;;;5038960;28;20925;-67
2024/01/19 10:53:50;;;;;;;2.17;1.87;;;18.20;34.50;;;;;;5038565;28;20438;-67
2024/01/19 10:56:22;;;;;;;1.97;1.87;;;18.20;34.50;;;;;;5035593;28;20510;-67
2024/01/19 10:58:48;;;;;;;2.27;2.07;;;18.20;34.50;;;;;;5031360;28;20440;-67
2024/01/19 11:01:15;;;;;;;2.30;2.20;;;18.20;34.50;;;;;;5030546;28;20521;-67
2024/01/19 11:03:45;;;;;;;3.17;2.87;;;18.20;34.60;;;;;;5027576;28;21342;-68
2024/01/19 11:06:11;;;;;;;2.30;2.10;;;18.20;34.50;;;;;;5022090;28;21581;-68
2024/01/19 11:08:37;;;;;;;2.47;2.27;;;18.20;34.50;;;;;;5021637;28;20860;-68
2024/01/19 11:11:05;;;;;;;2.50;2.40;;;18.20;34.50;;;;;;5037610;28;20416;-68
2024/01/19 11:13:36;;;;;;;2.47;2.27;;;18.20;34.50;;;;;;5020455;28;20470;-68
2024/01/19 11:16:17;;;;;;;2.20;2.10;;;18.20;34.60;;;;;;5020966;28;20470;-68
2024/01/19 11:18:43;;;;;;;2.40;2.30;;;18.20;34.60;;;;;;5024025;28;21226;-68
2024/01/19 11:21:09;;;;;;;2.40;2.20;;;18.20;34.50;;;;;;5028080;28;20957;-68
2024/01/19 11:23:37;;;;;;;2.07;1.87;;;18.20;34.50;;;;;;5026403;28;20566;-68
2024/01/19 11:26:30;;;;;;;2.60;2.40;;;18.20;34.60;;;;;;5020475;28;20231;-67
2024/01/19 11:29:21;;;;;;;2.40;2.30;;;18.20;34.50;;;;;;5022143;28;20440;-67
2024/01/19 11:31:50;;;;;;;2.87;2.67;;;18.20;34.50;;;;;;5025966;28;20447;-68
2024/01/19 11:34:50;;;;;;;2.40;2.20;;;18.20;34.50;;;;;;5022332;28;20426;-68
2024/01/19 11:37:46;;;;;;;2.20;2.10;;;18.20;34.50;;;;;;5012713;28;20427;-68
2024/01/19 11:40:24;;;;;;;1.90;1.80;;;18.20;34.50;;;;;;5032337;28;20501;-69
2024/01/19 11:42:50;;;;;;;2.80;2.60;;;18.20;34.50;;;;;;5022816;28;20447;-69
2024/01/19 11:45:28;;;;;;;2.10;2.00;;;18.20;34.50;;;;;;5019573;28;20441;-69
2024/01/19 11:47:56;;;;;;;2.30;2.20;;;18.20;34.50;;;;;;5029731;28;20467;-69
2024/01/19 11:50:44;;;;;;;2.80;2.60;;;18.20;34.40;;;;;;5023184;28;20476;-69
2024/01/19 11:53:11;;;;;;;2.53;2.33;;;18.20;34.50;;;;;;5015911;28;20518;-69
2024/01/19 11:55:39;;;;;;;2.20;2.07;;;18.20;34.50;;;;;;5020432;28;21185;-69
2024/01/19 11:58:30;;;;;;;2.47;2.37;;;18.20;34.40;;;;;;5022660;28;20455;-69
2024/01/19 12:00:58;;;;;;;2.20;2.10;;;18.20;34.40;;;;;;5023120;28;21002;-68
2024/01/19 12:03:24;;;;;;;2.63;2.53;;;18.20;34.40;;;;;;5025837;28;21054;-69
2024/01/19 12:05:53;;;;;;;2.10;2.00;;;18.20;34.40;;;;;;5033203;28;20489;-69
2024/01/19 12:08:18;;;;;;;2.47;2.37;;;18.20;34.40;;;;;;5038345;28;20441;-69
2024/01/19 12:10:44;;;;;;;2.70;2.50;;;18.20;34.40;;;;;;5035155;28;21229;-69
2024/01/19 12:13:11;;;;;;;2.23;2.13;;;18.20;34.40;;;;;;5050132;28;20226;-69
2024/01/19 12:15:37;;;;;;;2.50;2.40;;;18.20;34.40;;;;;;5032943;28;20234;-69
2024/01/19 12:18:04;;;;;;;2.47;2.37;;;18.20;34.50;;;;;;5030769;28;20410;-69
2024/01/19 12:20:30;;;;;;;2.43;2.23;;;18.20;34.40;;;;;;5015883;28;20476;-69
2024/01/19 12:22:56;;;;;;;2.50;2.33;;;18.20;34.40;;;;;;5029539;28;20777;-69
2024/01/19 12:25:24;;;;;;;2.90;2.70;;;18.20;34.40;;;;;;5037526;28;20483;-69
2024/01/19 12:28:00;;;;;;;2.30;2.20;;;18.20;34.40;;;;;;5018974;28;20234;-69
2024/01/19 12:30:29;;;;;;;2.60;2.40;;;18.20;34.40;;;;;;5020852;28;20470;-68
2024/01/19 12:32:55;;;;;;;2.30;2.10;;;18.20;34.40;;;;;;5021680;28;20847;-68
2024/01/19 12:35:20;;;;;;;2.93;2.40;;;18.20;34.40;;;;;;5026870;28;20841;-68
2024/01/19 12:37:46;;;;;;;2.47;2.27;;;18.20;34.50;;;;;;5037902;28;20232;-68
2024/01/19 12:40:16;;;;;;;2.60;2.40;;;18.20;34.40;;;;;;5033763;28;20222;-68
2024/01/19 12:42:42;;;;;;;2.53;2.43;;;18.20;34.40;;;;;;5019866;28;20705;-68
2024/01/19 12:45:15;;;;;;;2.20;2.00;;;18.20;34.40;;;;;;5035019;28;20463;-67
2024/01/19 12:47:45;;;;;;;2.80;2.33;;;18.20;34.40;;;;;;5025802;28;20516;-68